Airfield :







YOU CAN JOIN US ON...

 
LOGIN :

Register | Disclaimer

   EN    FR    IT 

 









Legend :    VFR   Marginal VFR   IFR   Intensive IFR   Very Intensive IFR
Visi :
Ceiling :
>= 8 km
>= 3000ft
5 to 8 km
1000 to 3000 ft
1500m to 5 km
500 to 1000 ft
800 to 1500m
200 to 500 ft
< 800m
< 200 ft
Symbols :   Thunderstorms  Fog  Heavy snow  Heavy precipitations  Wind > 20 kt







- Airport Elevation : 234 ft
- IATA code : PBG


KPBG - Plattsburgh International

CURRENT METAR :
  • 190153Z AUTO 00000KT 10SM CLR 07/05 A3032 RMK AO2 SLP270 T00670050

EXPIRED METARs :
  • 190053Z AUTO 00000KT 10SM CLR 08/06 A3032 RMK AO2 SLP269 T00830056
  • 182353Z AUTO 00000KT 10SM CLR 10/07 A3032 RMK AO2 SLP268 T01000072 10183 20094 53003
  • 182253Z AUTO 00000KT 10SM CLR 12/07 A3032 RMK AO2 SLP268 T01220067

TAF KPBG
Valid from the 19 at 00:00 until the 20 at 00:00 UTC


182320Z 1900/1924 VRB02KT P6SM SKC
FM191400 14008KT P6SM FEW250
No reported NOTAMs for that airfield.



MET'MAP, your aeronautical weather chart ! - Copyright ORBIFLY December 2007 - Disclaimer

ORBIFLY MET'MAP TEAM :

Programming & Development : Alexandra Zaïnal
Concept & Development : Baudouin d'Aumeries
Co-Development & Prog : Marc-Olivier Méhu
Technical & hardware support : Manuel Goepfert

Contact : metmap@orbifly.com




SOURCES & CREDITS :

   NOAA